首页
METAR-TAF:

METAR-TAF

机场 :

Julian Carroll Airport

杰克逊, 肯塔基州, 美国

纬度: 37-35-29N, 经度: 083-18-52W, 海拔: 421米

当前天气观测

该预报发布于1小时和9分钟前的00:53 UTC
静风
温度 6°C
湿度 61%
气压 1025 hPa
能見度: 16.1公里
天空无云

METAR: KJKL 220053Z AUTO 00000KT 10SM CLR 06/M01 A3028 RMK AO2 SLP260 T00561011

时间: 22:02 (02:02 UTC)

预报

该预报发布于2小时和42分钟前的23:20 UTC
预报有效从22日的 00点(UTC)到 22日的 24点(UTC)
风速节,风向
能見度: 10公里
天空无云
从 22日的 1500点(UTC)
风速4节,风向西南
能見度: 10公里
少量云层高于25000英尺

TAF: KJKL 212320Z 2200/2224 00000KT P6SM SKC FM221500 22004KT P6SM FEW250

超过4000个机场的气象观测和天气预报(METAR&TAF报告)。

可查询的气象台以黄色和红色小点在地图上表示。

将鼠标移到小点上方,可查看气象台名称。

然后点击查看天气观测和预报。

如需切换地图:点击带黑十字的绿色按钮放大地图;点击带横线的绿色按钮缩小地图;或者点击绿色箭头查看邻近地区的地图。


METAR-TAF: